sensor_id;sensor_type;location;lat;lon;timestamp;temperature;humidity
10171;DHT22;5127;50.922;6.988;2024-02-28T00:02:05;6.30;78.00
10171;DHT22;5127;50.922;6.988;2024-02-28T00:04:32;6.30;77.90
10171;DHT22;5127;50.922;6.988;2024-02-28T00:07:00;6.30;78.00
10171;DHT22;5127;50.922;6.988;2024-02-28T00:09:27;6.20;78.10
10171;DHT22;5127;50.922;6.988;2024-02-28T00:11:54;6.20;78.30
10171;DHT22;5127;50.922;6.988;2024-02-28T00:14:21;6.20;78.50
10171;DHT22;5127;50.922;6.988;2024-02-28T00:16:49;6.20;78.70
10171;DHT22;5127;50.922;6.988;2024-02-28T00:19:18;6.20;79.00
10171;DHT22;5127;50.922;6.988;2024-02-28T00:21:46;6.30;79.30
10171;DHT22;5127;50.922;6.988;2024-02-28T00:24:14;6.30;79.50
10171;DHT22;5127;50.922;6.988;2024-02-28T00:26:41;6.20;79.50
10171;DHT22;5127;50.922;6.988;2024-02-28T00:29:09;6.40;79.90
10171;DHT22;5127;50.922;6.988;2024-02-28T00:31:36;6.40;80.00
10171;DHT22;5127;50.922;6.988;2024-02-28T00:34:03;6.50;80.20
10171;DHT22;5127;50.922;6.988;2024-02-28T00:36:34;6.60;80.40
10171;DHT22;5127;50.922;6.988;2024-02-28T00:39:01;6.60;80.50
10171;DHT22;5127;50.922;6.988;2024-02-28T00:41:30;6.70;80.60
10171;DHT22;5127;50.922;6.988;2024-02-28T00:43:57;6.80;80.70
10171;DHT22;5127;50.922;6.988;2024-02-28T00:46:24;6.90;80.90
10171;DHT22;5127;50.922;6.988;2024-02-28T00:48:51;6.90;80.90
10171;DHT22;5127;50.922;6.988;2024-02-28T00:51:19;7.10;81.10
10171;DHT22;5127;50.922;6.988;2024-02-28T00:53:47;7.00;81.00
10171;DHT22;5127;50.922;6.988;2024-02-28T00:56:15;7.10;81.00
10171;DHT22;5127;50.922;6.988;2024-02-28T00:58:44;7.20;81.10
10171;DHT22;5127;50.922;6.988;2024-02-28T01:01:12;7.20;81.00
10171;DHT22;5127;50.922;6.988;2024-02-28T01:03:39;7.30;81.00
10171;DHT22;5127;50.922;6.988;2024-02-28T01:06:06;7.30;81.00
10171;DHT22;5127;50.922;6.988;2024-02-28T01:08:34;7.40;81.10
10171;DHT22;5127;50.922;6.988;2024-02-28T01:11:02;7.40;81.10
10171;DHT22;5127;50.922;6.988;2024-02-28T01:13:30;7.50;81.20
10171;DHT22;5127;50.922;6.988;2024-02-28T01:15:57;7.50;81.20
10171;DHT22;5127;50.922;6.988;2024-02-28T01:18:25;7.60;81.20
10171;DHT22;5127;50.922;6.988;2024-02-28T01:20:56;7.60;81.10
10171;DHT22;5127;50.922;6.988;2024-02-28T01:23:23;7.70;81.20
10171;DHT22;5127;50.922;6.988;2024-02-28T01:25:51;7.70;81.10
10171;DHT22;5127;50.922;6.988;2024-02-28T01:28:19;7.80;81.20
10171;DHT22;5127;50.922;6.988;2024-02-28T01:30:48;7.80;81.10
10171;DHT22;5127;50.922;6.988;2024-02-28T01:33:15;7.80;81.00
10171;DHT22;5127;50.922;6.988;2024-02-28T01:35:43;7.80;81.00
10171;DHT22;5127;50.922;6.988;2024-02-28T01:38:10;7.90;80.90
10171;DHT22;5127;50.922;6.988;2024-02-28T01:40:37;7.90;80.90
10171;DHT22;5127;50.922;6.988;2024-02-28T01:43:07;7.90;80.90
10171;DHT22;5127;50.922;6.988;2024-02-28T01:45:35;7.90;80.80
10171;DHT22;5127;50.922;6.988;2024-02-28T01:48:03;7.90;80.70
10171;DHT22;5127;50.922;6.988;2024-02-28T01:50:31;8.00;80.80
10171;DHT22;5127;50.922;6.988;2024-02-28T01:52:58;8.00;80.80
10171;DHT22;5127;50.922;6.988;2024-02-28T01:55:26;8.00;81.40
10171;DHT22;5127;50.922;6.988;2024-02-28T01:57:54;8.00;80.70
10171;DHT22;5127;50.922;6.988;2024-02-28T02:00:21;8.10;80.80
10171;DHT22;5127;50.922;6.988;2024-02-28T02:02:51;7.80;80.50
10171;DHT22;5127;50.922;6.988;2024-02-28T02:05:19;8.10;80.70
10171;DHT22;5127;50.922;6.988;2024-02-28T02:07:47;8.10;80.80
10171;DHT22;5127;50.922;6.988;2024-02-28T02:10:15;8.10;80.80
10171;DHT22;5127;50.922;6.988;2024-02-28T02:12:42;8.10;80.70
10171;DHT22;5127;50.922;6.988;2024-02-28T02:15:09;8.10;80.70
10171;DHT22;5127;50.922;6.988;2024-02-28T02:17:37;8.10;80.70
10171;DHT22;5127;50.922;6.988;2024-02-28T02:20:10;8.10;80.70
10171;DHT22;5127;50.922;6.988;2024-02-28T02:22:40;8.20;80.50
10171;DHT22;5127;50.922;6.988;2024-02-28T02:25:08;8.20;80.70
10171;DHT22;5127;50.922;6.988;2024-02-28T02:27:35;8.20;80.70
10171;DHT22;5127;50.922;6.988;2024-02-28T02:30:03;8.20;80.80
10171;DHT22;5127;50.922;6.988;2024-02-28T02:32:31;8.30;80.80
10171;DHT22;5127;50.922;6.988;2024-02-28T02:34:58;8.30;80.80
10171;DHT22;5127;50.922;6.988;2024-02-28T02:37:25;8.30;80.80
10171;DHT22;5127;50.922;6.988;2024-02-28T02:39:54;8.30;80.70
10171;DHT22;5127;50.922;6.988;2024-02-28T02:42:22;8.30;80.60
10171;DHT22;5127;50.922;6.988;2024-02-28T02:44:49;8.40;80.70
10171;DHT22;5127;50.922;6.988;2024-02-28T02:47:16;8.40;80.70
10171;DHT22;5127;50.922;6.988;2024-02-28T02:49:43;8.40;80.60
10171;DHT22;5127;50.922;6.988;2024-02-28T02:52:11;8.40;80.60
10171;DHT22;5127;50.922;6.988;2024-02-28T02:54:38;8.40;80.60
10171;DHT22;5127;50.922;6.988;2024-02-28T02:57:07;8.40;80.60
10171;DHT22;5127;50.922;6.988;2024-02-28T02:59:35;8.40;80.50
10171;DHT22;5127;50.922;6.988;2024-02-28T03:02:03;8.50;80.60
10171;DHT22;5127;50.922;6.988;2024-02-28T03:04:30;8.50;80.60
10171;DHT22;5127;50.922;6.988;2024-02-28T03:06:57;8.50;80.60
10171;DHT22;5127;50.922;6.988;2024-02-28T03:09:25;8.50;80.70
10171;DHT22;5127;50.922;6.988;2024-02-28T03:11:52;8.50;80.70
10171;DHT22;5127;50.922;6.988;2024-02-28T03:14:21;8.50;80.70
10171;DHT22;5127;50.922;6.988;2024-02-28T03:16:51;8.50;80.60
10171;DHT22;5127;50.922;6.988;2024-02-28T03:19:18;8.50;80.70
10171;DHT22;5127;50.922;6.988;2024-02-28T03:21:45;8.50;80.80
10171;DHT22;5127;50.922;6.988;2024-02-28T03:24:13;8.50;80.60
10171;DHT22;5127;50.922;6.988;2024-02-28T03:26:40;8.50;80.60
10171;DHT22;5127;50.922;6.988;2024-02-28T03:29:08;8.50;80.60
10171;DHT22;5127;50.922;6.988;2024-02-28T03:31:37;8.50;80.60
10171;DHT22;5127;50.922;6.988;2024-02-28T03:34:04;8.50;80.40
10171;DHT22;5127;50.922;6.988;2024-02-28T03:36:31;8.50;80.60
10171;DHT22;5127;50.922;6.988;2024-02-28T03:38:59;8.50;80.60
10171;DHT22;5127;50.922;6.988;2024-02-28T03:41:26;8.50;80.60
10171;DHT22;5127;50.922;6.988;2024-02-28T03:43:53;8.50;80.60
10171;DHT22;5127;50.922;6.988;2024-02-28T03:46:21;8.50;80.60
10171;DHT22;5127;50.922;6.988;2024-02-28T03:48:49;8.50;80.60
10171;DHT22;5127;50.922;6.988;2024-02-28T03:51:17;8.60;80.60
10171;DHT22;5127;50.922;6.988;2024-02-28T03:53:44;8.60;80.60
10171;DHT22;5127;50.922;6.988;2024-02-28T03:56:12;8.60;80.60
10171;DHT22;5127;50.922;6.988;2024-02-28T03:58:39;8.60;80.50
10171;DHT22;5127;50.922;6.988;2024-02-28T04:01:07;8.60;80.50
10171;DHT22;5127;50.922;6.988;2024-02-28T04:03:34;8.60;80.40
10171;DHT22;5127;50.922;6.988;2024-02-28T04:06:04;8.60;80.30
10171;DHT22;5127;50.922;6.988;2024-02-28T04:08:31;8.60;80.20
10171;DHT22;5127;50.922;6.988;2024-02-28T04:10:59;8.50;80.10
10171;DHT22;5127;50.922;6.988;2024-02-28T04:13:26;8.50;80.20
10171;DHT22;5127;50.922;6.988;2024-02-28T04:15:53;8.50;80.20
10171;DHT22;5127;50.922;6.988;2024-02-28T04:18:21;8.50;80.20
10171;DHT22;5127;50.922;6.988;2024-02-28T04:20:49;8.50;80.30
10171;DHT22;5127;50.922;6.988;2024-02-28T04:23:17;8.50;80.30
10171;DHT22;5127;50.922;6.988;2024-02-28T04:25:45;8.50;80.20
10171;DHT22;5127;50.922;6.988;2024-02-28T04:28:12;8.50;80.30
10171;DHT22;5127;50.922;6.988;2024-02-28T04:30:39;8.50;80.40
10171;DHT22;5127;50.922;6.988;2024-02-28T04:33:07;8.50;80.40
10171;DHT22;5127;50.922;6.988;2024-02-28T04:35:34;8.50;80.50
10171;DHT22;5127;50.922;6.988;2024-02-28T04:38:01;8.50;80.40
10171;DHT22;5127;50.922;6.988;2024-02-28T04:40:30;8.50;80.30
10171;DHT22;5127;50.922;6.988;2024-02-28T04:42:57;8.50;80.30
10171;DHT22;5127;50.922;6.988;2024-02-28T04:45:25;8.50;80.30
10171;DHT22;5127;50.922;6.988;2024-02-28T04:47:52;8.50;80.30
10171;DHT22;5127;50.922;6.988;2024-02-28T04:50:21;8.60;80.30
10171;DHT22;5127;50.922;6.988;2024-02-28T04:52:49;8.50;80.30
10171;DHT22;5127;50.922;6.988;2024-02-28T04:55:16;8.60;80.30
10171;DHT22;5127;50.922;6.988;2024-02-28T04:57:45;8.60;80.30
10171;DHT22;5127;50.922;6.988;2024-02-28T05:00:13;8.60;80.30
10171;DHT22;5127;50.922;6.988;2024-02-28T05:02:41;8.50;80.30
10171;DHT22;5127;50.922;6.988;2024-02-28T05:05:08;8.60;80.40
10171;DHT22;5127;50.922;6.988;2024-02-28T05:07:35;8.60;80.30
10171;DHT22;5127;50.922;6.988;2024-02-28T05:10:03;8.60;80.30
10171;DHT22;5127;50.922;6.988;2024-02-28T05:12:31;8.60;80.30
10171;DHT22;5127;50.922;6.988;2024-02-28T05:15:00;8.60;80.30
10171;DHT22;5127;50.922;6.988;2024-02-28T05:17:27;8.60;80.30
10171;DHT22;5127;50.922;6.988;2024-02-28T05:19:54;8.60;80.40
10171;DHT22;5127;50.922;6.988;2024-02-28T05:22:23;8.60;80.40
10171;DHT22;5127;50.922;6.988;2024-02-28T05:24:50;8.60;80.40
10171;DHT22;5127;50.922;6.988;2024-02-28T05:27:18;8.60;80.30
10171;DHT22;5127;50.922;6.988;2024-02-28T05:29:45;8.60;80.20
10171;DHT22;5127;50.922;6.988;2024-02-28T05:32:14;8.60;80.00
10171;DHT22;5127;50.922;6.988;2024-02-28T05:34:43;8.60;79.90
10171;DHT22;5127;50.922;6.988;2024-02-28T05:37:10;8.50;79.90
10171;DHT22;5127;50.922;6.988;2024-02-28T05:39:37;8.50;79.90
10171;DHT22;5127;50.922;6.988;2024-02-28T05:42:05;8.50;80.00
10171;DHT22;5127;50.922;6.988;2024-02-28T05:44:32;8.50;80.00
10171;DHT22;5127;50.922;6.988;2024-02-28T05:47:00;8.50;80.00
10171;DHT22;5127;50.922;6.988;2024-02-28T05:49:29;8.40;80.00
10171;DHT22;5127;50.922;6.988;2024-02-28T05:51:56;8.50;80.10
10171;DHT22;5127;50.922;6.988;2024-02-28T05:54:23;8.40;80.10
10171;DHT22;5127;50.922;6.988;2024-02-28T05:56:51;8.40;80.10
10171;DHT22;5127;50.922;6.988;2024-02-28T05:59:18;8.40;80.10
10171;DHT22;5127;50.922;6.988;2024-02-28T06:01:45;8.50;80.20
10171;DHT22;5127;50.922;6.988;2024-02-28T06:04:13;8.50;80.20
10171;DHT22;5127;50.922;6.988;2024-02-28T06:06:42;8.50;80.10
10171;DHT22;5127;50.922;6.988;2024-02-28T06:09:09;8.50;80.00
10171;DHT22;5127;50.922;6.988;2024-02-28T06:11:36;8.50;80.20
10171;DHT22;5127;50.922;6.988;2024-02-28T06:14:04;8.50;80.20
10171;DHT22;5127;50.922;6.988;2024-02-28T06:16:31;8.50;80.20
10171;DHT22;5127;50.922;6.988;2024-02-28T06:18:58;8.50;80.30
10171;DHT22;5127;50.922;6.988;2024-02-28T06:21:25;8.50;80.30
10171;DHT22;5127;50.922;6.988;2024-02-28T06:23:54;8.50;80.30
10171;DHT22;5127;50.922;6.988;2024-02-28T06:26:22;8.60;80.20
10171;DHT22;5127;50.922;6.988;2024-02-28T06:28:49;8.60;80.30
10171;DHT22;5127;50.922;6.988;2024-02-28T06:31:17;8.60;80.30
10171;DHT22;5127;50.922;6.988;2024-02-28T06:33:45;8.60;80.30
10171;DHT22;5127;50.922;6.988;2024-02-28T06:36:13;8.60;80.30
10171;DHT22;5127;50.922;6.988;2024-02-28T06:38:40;8.60;80.20
10171;DHT22;5127;50.922;6.988;2024-02-28T06:41:09;8.60;80.20
10171;DHT22;5127;50.922;6.988;2024-02-28T06:43:36;8.60;80.10
10171;DHT22;5127;50.922;6.988;2024-02-28T06:46:03;8.60;80.10
10171;DHT22;5127;50.922;6.988;2024-02-28T06:48:30;8.60;80.30
10171;DHT22;5127;50.922;6.988;2024-02-28T06:50:58;8.60;80.10
10171;DHT22;5127;50.922;6.988;2024-02-28T06:53:25;8.60;80.20
10171;DHT22;5127;50.922;6.988;2024-02-28T06:55:53;8.60;80.10
10171;DHT22;5127;50.922;6.988;2024-02-28T06:58:22;8.60;80.00
10171;DHT22;5127;50.922;6.988;2024-02-28T07:00:50;8.60;80.00
10171;DHT22;5127;50.922;6.988;2024-02-28T07:03:18;8.60;80.00
10171;DHT22;5127;50.922;6.988;2024-02-28T07:05:46;8.60;80.10
10171;DHT22;5127;50.922;6.988;2024-02-28T07:08:13;8.60;80.10
10171;DHT22;5127;50.922;6.988;2024-02-28T07:10:40;8.60;80.10
10171;DHT22;5127;50.922;6.988;2024-02-28T07:13:09;8.60;80.20
10171;DHT22;5127;50.922;6.988;2024-02-28T07:15:38;8.60;80.20
10171;DHT22;5127;50.922;6.988;2024-02-28T07:18:06;8.70;80.30
10171;DHT22;5127;50.922;6.988;2024-02-28T07:20:33;8.70;81.10
10171;DHT22;5127;50.922;6.988;2024-02-28T07:23:00;8.70;80.50
10171;DHT22;5127;50.922;6.988;2024-02-28T07:25:28;8.70;80.50
10171;DHT22;5127;50.922;6.988;2024-02-28T07:27:57;8.70;80.50
10171;DHT22;5127;50.922;6.988;2024-02-28T07:30:25;8.70;80.30
10171;DHT22;5127;50.922;6.988;2024-02-28T07:32:54;8.70;80.40
10171;DHT22;5127;50.922;6.988;2024-02-28T07:35:22;8.80;80.60
10171;DHT22;5127;50.922;6.988;2024-02-28T07:37:50;8.80;80.60
10171;DHT22;5127;50.922;6.988;2024-02-28T07:40:18;8.80;80.60
10171;DHT22;5127;50.922;6.988;2024-02-28T07:42:45;8.80;80.40
10171;DHT22;5127;50.922;6.988;2024-02-28T07:45:12;8.80;80.40
10171;DHT22;5127;50.922;6.988;2024-02-28T07:47:40;8.90;80.50
10171;DHT22;5127;50.922;6.988;2024-02-28T07:50:09;8.90;80.50
10171;DHT22;5127;50.922;6.988;2024-02-28T07:52:36;8.90;80.30
10171;DHT22;5127;50.922;6.988;2024-02-28T07:55:05;8.90;80.40
10171;DHT22;5127;50.922;6.988;2024-02-28T07:57:32;9.00;80.40
10171;DHT22;5127;50.922;6.988;2024-02-28T08:00:00;9.00;80.50
10171;DHT22;5127;50.922;6.988;2024-02-28T08:02:27;9.00;80.50
10171;DHT22;5127;50.922;6.988;2024-02-28T08:04:55;9.00;80.40
10171;DHT22;5127;50.922;6.988;2024-02-28T08:07:24;9.00;80.40
10171;DHT22;5127;50.922;6.988;2024-02-28T08:09:51;9.10;80.30
10171;DHT22;5127;50.922;6.988;2024-02-28T08:12:19;9.10;80.50
10171;DHT22;5127;50.922;6.988;2024-02-28T08:14:46;9.10;80.60
10171;DHT22;5127;50.922;6.988;2024-02-28T08:17:13;9.10;80.60
10171;DHT22;5127;50.922;6.988;2024-02-28T08:19:41;9.10;80.60
10171;DHT22;5127;50.922;6.988;2024-02-28T08:22:09;9.10;80.60
10171;DHT22;5127;50.922;6.988;2024-02-28T08:24:38;9.20;80.70
10171;DHT22;5127;50.922;6.988;2024-02-28T08:27:05;9.20;80.50
10171;DHT22;5127;50.922;6.988;2024-02-28T08:29:32;9.20;80.70
10171;DHT22;5127;50.922;6.988;2024-02-28T08:32:01;9.30;80.80
10171;DHT22;5127;50.922;6.988;2024-02-28T08:34:29;9.30;80.60
10171;DHT22;5127;50.922;6.988;2024-02-28T08:36:57;9.30;80.70
10171;DHT22;5127;50.922;6.988;2024-02-28T08:39:24;9.30;80.70
10171;DHT22;5127;50.922;6.988;2024-02-28T08:41:52;9.40;80.60
10171;DHT22;5127;50.922;6.988;2024-02-28T08:44:20;9.40;80.50
10171;DHT22;5127;50.922;6.988;2024-02-28T08:46:47;9.50;80.80
10171;DHT22;5127;50.922;6.988;2024-02-28T08:49:15;9.50;80.60
10171;DHT22;5127;50.922;6.988;2024-02-28T08:51:43;9.60;80.80
10171;DHT22;5127;50.922;6.988;2024-02-28T08:54:10;9.60;80.60
10171;DHT22;5127;50.922;6.988;2024-02-28T08:56:37;9.60;80.50
10171;DHT22;5127;50.922;6.988;2024-02-28T08:59:06;9.70;80.40
10171;DHT22;5127;50.922;6.988;2024-02-28T09:01:33;9.70;80.20
10171;DHT22;5127;50.922;6.988;2024-02-28T09:04:02;9.70;80.30
10171;DHT22;5127;50.922;6.988;2024-02-28T09:06:29;9.70;80.20
10171;DHT22;5127;50.922;6.988;2024-02-28T09:08:56;9.70;80.20
10171;DHT22;5127;50.922;6.988;2024-02-28T09:11:24;9.80;80.40
10171;DHT22;5127;50.922;6.988;2024-02-28T09:13:52;9.80;80.40
10171;DHT22;5127;50.922;6.988;2024-02-28T09:16:20;9.90;80.20
10171;DHT22;5127;50.922;6.988;2024-02-28T09:18:48;9.90;80.10
10171;DHT22;5127;50.922;6.988;2024-02-28T09:21:15;9.90;80.10
10171;DHT22;5127;50.922;6.988;2024-02-28T09:23:42;9.90;80.00
10171;DHT22;5127;50.922;6.988;2024-02-28T09:26:10;9.90;80.00
10171;DHT22;5127;50.922;6.988;2024-02-28T09:28:37;10.00;79.10
10171;DHT22;5127;50.922;6.988;2024-02-28T09:31:05;10.00;79.30
10171;DHT22;5127;50.922;6.988;2024-02-28T09:33:34;10.10;79.40
10171;DHT22;5127;50.922;6.988;2024-02-28T09:36:02;10.10;79.20
10171;DHT22;5127;50.922;6.988;2024-02-28T09:38:29;10.20;79.30
10171;DHT22;5127;50.922;6.988;2024-02-28T09:40:58;10.20;79.30
10171;DHT22;5127;50.922;6.988;2024-02-28T09:43:29;10.30;79.20
10171;DHT22;5127;50.922;6.988;2024-02-28T09:45:59;10.30;79.00
10171;DHT22;5127;50.922;6.988;2024-02-28T09:48:27;10.40;79.10
10171;DHT22;5127;50.922;6.988;2024-02-28T09:50:57;10.40;79.20
10171;DHT22;5127;50.922;6.988;2024-02-28T09:53:24;10.50;79.00
10171;DHT22;5127;50.922;6.988;2024-02-28T09:55:52;10.50;79.10
10171;DHT22;5127;50.922;6.988;2024-02-28T09:58:19;10.60;79.20
10171;DHT22;5127;50.922;6.988;2024-02-28T10:00:47;10.60;79.30
10171;DHT22;5127;50.922;6.988;2024-02-28T10:03:17;10.70;79.30
10171;DHT22;5127;50.922;6.988;2024-02-28T10:05:45;10.70;79.60
10171;DHT22;5127;50.922;6.988;2024-02-28T10:08:14;10.80;79.30
10171;DHT22;5127;50.922;6.988;2024-02-28T10:10:45;10.80;79.00
10171;DHT22;5127;50.922;6.988;2024-02-28T10:13:13;10.90;78.80
10171;DHT22;5127;50.922;6.988;2024-02-28T10:15:41;11.00;79.40
10171;DHT22;5127;50.922;6.988;2024-02-28T10:18:08;11.00;79.00
10171;DHT22;5127;50.922;6.988;2024-02-28T10:20:35;11.10;78.30
10171;DHT22;5127;50.922;6.988;2024-02-28T10:23:04;11.10;78.60
10171;DHT22;5127;50.922;6.988;2024-02-28T10:25:33;11.10;78.20
10171;DHT22;5127;50.922;6.988;2024-02-28T10:28:01;11.10;78.10
10171;DHT22;5127;50.922;6.988;2024-02-28T10:30:28;11.10;78.00
10171;DHT22;5127;50.922;6.988;2024-02-28T10:32:55;11.20;78.30
10171;DHT22;5127;50.922;6.988;2024-02-28T10:35:23;11.10;78.00
10171;DHT22;5127;50.922;6.988;2024-02-28T10:37:51;11.20;77.90
10171;DHT22;5127;50.922;6.988;2024-02-28T10:40:20;11.20;78.10
10171;DHT22;5127;50.922;6.988;2024-02-28T10:42:49;11.20;77.60
10171;DHT22;5127;50.922;6.988;2024-02-28T10:45:17;11.20;77.70
10171;DHT22;5127;50.922;6.988;2024-02-28T10:47:45;11.10;77.60
10171;DHT22;5127;50.922;6.988;2024-02-28T10:50:13;11.10;77.70
10171;DHT22;5127;50.922;6.988;2024-02-28T10:52:44;11.20;77.90
10171;DHT22;5127;50.922;6.988;2024-02-28T10:55:14;11.20;77.30
10171;DHT22;5127;50.922;6.988;2024-02-28T10:57:46;11.20;77.30
10171;DHT22;5127;50.922;6.988;2024-02-28T11:00:19;11.20;77.00
10171;DHT22;5127;50.922;6.988;2024-02-28T11:02:47;11.20;77.40
10171;DHT22;5127;50.922;6.988;2024-02-28T11:05:15;11.20;77.20
10171;DHT22;5127;50.922;6.988;2024-02-28T11:07:42;11.20;76.90
10171;DHT22;5127;50.922;6.988;2024-02-28T11:10:10;11.10;76.70
10171;DHT22;5127;50.922;6.988;2024-02-28T11:12:38;11.10;76.70
10171;DHT22;5127;50.922;6.988;2024-02-28T11:15:06;11.10;77.00
10171;DHT22;5127;50.922;6.988;2024-02-28T11:17:44;11.10;77.00
10171;DHT22;5127;50.922;6.988;2024-02-28T11:20:12;11.10;77.00
10171;DHT22;5127;50.922;6.988;2024-02-28T11:22:40;11.10;77.30
10171;DHT22;5127;50.922;6.988;2024-02-28T11:25:08;11.10;77.00
10171;DHT22;5127;50.922;6.988;2024-02-28T11:27:45;11.10;76.70
10171;DHT22;5127;50.922;6.988;2024-02-28T11:30:13;11.10;76.00
10171;DHT22;5127;50.922;6.988;2024-02-28T11:32:41;11.10;77.10
10171;DHT22;5127;50.922;6.988;2024-02-28T11:35:10;11.10;76.70
10171;DHT22;5127;50.922;6.988;2024-02-28T11:37:38;11.10;76.40
10171;DHT22;5127;50.922;6.988;2024-02-28T11:40:07;11.10;76.70
10171;DHT22;5127;50.922;6.988;2024-02-28T11:42:35;11.10;76.70
10171;DHT22;5127;50.922;6.988;2024-02-28T11:45:03;11.10;76.80
10171;DHT22;5127;50.922;6.988;2024-02-28T11:47:31;11.10;76.50
10171;DHT22;5127;50.922;6.988;2024-02-28T11:49:59;11.10;76.60
10171;DHT22;5127;50.922;6.988;2024-02-28T11:52:30;11.10;76.80
10171;DHT22;5127;50.922;6.988;2024-02-28T11:54:57;11.10;76.30
10171;DHT22;5127;50.922;6.988;2024-02-28T11:57:25;11.10;76.80
10171;DHT22;5127;50.922;6.988;2024-02-28T11:59:55;11.20;76.80
10171;DHT22;5127;50.922;6.988;2024-02-28T12:02:23;11.20;77.00
10171;DHT22;5127;50.922;6.988;2024-02-28T12:04:51;11.20;77.10
10171;DHT22;5127;50.922;6.988;2024-02-28T12:07:20;11.30;77.30
10171;DHT22;5127;50.922;6.988;2024-02-28T12:09:49;11.30;77.30
10171;DHT22;5127;50.922;6.988;2024-02-28T12:12:16;11.30;76.70
10171;DHT22;5127;50.922;6.988;2024-02-28T12:14:46;11.40;77.00
10171;DHT22;5127;50.922;6.988;2024-02-28T12:17:14;11.30;76.40
10171;DHT22;5127;50.922;6.988;2024-02-28T12:19:42;11.40;76.60
10171;DHT22;5127;50.922;6.988;2024-02-28T12:22:09;11.50;76.60
10171;DHT22;5127;50.922;6.988;2024-02-28T12:24:37;11.50;76.30
10171;DHT22;5127;50.922;6.988;2024-02-28T12:27:05;11.50;76.60
10171;DHT22;5127;50.922;6.988;2024-02-28T12:29:33;11.50;76.00
10171;DHT22;5127;50.922;6.988;2024-02-28T12:32:00;11.50;76.20
10171;DHT22;5127;50.922;6.988;2024-02-28T12:34:27;11.60;76.30
10171;DHT22;5127;50.922;6.988;2024-02-28T12:36:55;11.60;76.30
10171;DHT22;5127;50.922;6.988;2024-02-28T12:39:22;11.60;76.60
10171;DHT22;5127;50.922;6.988;2024-02-28T12:41:51;11.60;76.10
10171;DHT22;5127;50.922;6.988;2024-02-28T12:44:19;11.60;76.20
10171;DHT22;5127;50.922;6.988;2024-02-28T12:46:47;11.70;76.10
10171;DHT22;5127;50.922;6.988;2024-02-28T12:49:14;11.70;76.20
10171;DHT22;5127;50.922;6.988;2024-02-28T12:51:42;11.70;76.10
10171;DHT22;5127;50.922;6.988;2024-02-28T12:54:10;11.70;76.10
10171;DHT22;5127;50.922;6.988;2024-02-28T12:56:38;11.70;75.50
10171;DHT22;5127;50.922;6.988;2024-02-28T12:59:06;11.80;75.50
10171;DHT22;5127;50.922;6.988;2024-02-28T13:01:35;11.80;75.30
10171;DHT22;5127;50.922;6.988;2024-02-28T13:04:03;11.80;75.10
10171;DHT22;5127;50.922;6.988;2024-02-28T13:06:30;11.80;75.30
10171;DHT22;5127;50.922;6.988;2024-02-28T13:08:58;11.80;75.20
10171;DHT22;5127;50.922;6.988;2024-02-28T13:11:25;11.80;75.30
10171;DHT22;5127;50.922;6.988;2024-02-28T13:13:53;11.90;75.40
10171;DHT22;5127;50.922;6.988;2024-02-28T13:16:20;11.90;75.40
10171;DHT22;5127;50.922;6.988;2024-02-28T13:18:49;11.90;75.30
10171;DHT22;5127;50.922;6.988;2024-02-28T13:21:16;12.00;75.10
10171;DHT22;5127;50.922;6.988;2024-02-28T13:23:44;12.00;75.50
10171;DHT22;5127;50.922;6.988;2024-02-28T13:26:11;12.10;75.90
10171;DHT22;5127;50.922;6.988;2024-02-28T13:28:43;12.10;75.60
10171;DHT22;5127;50.922;6.988;2024-02-28T13:31:11;12.20;75.10
10171;DHT22;5127;50.922;6.988;2024-02-28T13:33:38;12.20;75.10
10171;DHT22;5127;50.922;6.988;2024-02-28T13:36:08;12.30;75.00
10171;DHT22;5127;50.922;6.988;2024-02-28T13:38:36;12.30;74.80
10171;DHT22;5127;50.922;6.988;2024-02-28T13:41:04;12.30;74.60
10171;DHT22;5127;50.922;6.988;2024-02-28T13:43:31;12.40;74.70
10171;DHT22;5127;50.922;6.988;2024-02-28T13:45:59;12.40;74.90
10171;DHT22;5127;50.922;6.988;2024-02-28T13:48:27;12.40;74.80
10171;DHT22;5127;50.922;6.988;2024-02-28T13:50:56;12.50;74.70
10171;DHT22;5127;50.922;6.988;2024-02-28T13:53:26;12.50;74.50
10171;DHT22;5127;50.922;6.988;2024-02-28T13:55:53;12.50;73.70
10171;DHT22;5127;50.922;6.988;2024-02-28T13:58:20;12.60;74.20
10171;DHT22;5127;50.922;6.988;2024-02-28T14:00:48;12.60;74.40
10171;DHT22;5127;50.922;6.988;2024-02-28T14:03:15;12.60;74.30
10171;DHT22;5127;50.922;6.988;2024-02-28T14:05:43;12.60;74.10
10171;DHT22;5127;50.922;6.988;2024-02-28T14:08:10;12.70;74.30
10171;DHT22;5127;50.922;6.988;2024-02-28T14:10:39;12.70;74.00
10171;DHT22;5127;50.922;6.988;2024-02-28T14:13:06;12.70;73.60
10171;DHT22;5127;50.922;6.988;2024-02-28T14:15:34;12.80;74.00
10171;DHT22;5127;50.922;6.988;2024-02-28T14:18:02;12.80;73.70
10171;DHT22;5127;50.922;6.988;2024-02-28T14:20:30;12.90;73.70
10171;DHT22;5127;50.922;6.988;2024-02-28T14:22:57;12.90;73.80
10171;DHT22;5127;50.922;6.988;2024-02-28T14:25:25;12.90;73.80
10171;DHT22;5127;50.922;6.988;2024-02-28T14:27:55;13.00;74.00
10171;DHT22;5127;50.922;6.988;2024-02-28T14:30:22;13.00;73.10
10171;DHT22;5127;50.922;6.988;2024-02-28T14:32:50;13.10;73.60
10171;DHT22;5127;50.922;6.988;2024-02-28T14:35:17;13.10;73.70
10171;DHT22;5127;50.922;6.988;2024-02-28T14:37:45;13.10;73.30
10171;DHT22;5127;50.922;6.988;2024-02-28T14:40:13;13.10;73.10
10171;DHT22;5127;50.922;6.988;2024-02-28T14:42:41;13.20;73.40
10171;DHT22;5127;50.922;6.988;2024-02-28T14:45:11;13.20;73.10
10171;DHT22;5127;50.922;6.988;2024-02-28T14:47:38;13.20;72.60
10171;DHT22;5127;50.922;6.988;2024-02-28T14:50:07;13.30;73.00
10171;DHT22;5127;50.922;6.988;2024-02-28T14:52:36;13.30;72.70
10171;DHT22;5127;50.922;6.988;2024-02-28T14:55:03;13.30;72.70
10171;DHT22;5127;50.922;6.988;2024-02-28T14:57:31;13.30;72.70
10171;DHT22;5127;50.922;6.988;2024-02-28T14:59:58;13.30;73.00
10171;DHT22;5127;50.922;6.988;2024-02-28T15:02:27;13.30;72.90
10171;DHT22;5127;50.922;6.988;2024-02-28T15:04:54;13.40;72.50
10171;DHT22;5127;50.922;6.988;2024-02-28T15:07:22;13.40;72.90
10171;DHT22;5127;50.922;6.988;2024-02-28T15:09:49;13.40;73.00
10171;DHT22;5127;50.922;6.988;2024-02-28T15:12:16;13.50;72.80
10171;DHT22;5127;50.922;6.988;2024-02-28T15:14:43;13.60;72.80
10171;DHT22;5127;50.922;6.988;2024-02-28T15:17:11;13.50;72.90
10171;DHT22;5127;50.922;6.988;2024-02-28T15:19:39;13.50;73.00
10171;DHT22;5127;50.922;6.988;2024-02-28T15:22:07;13.50;72.50
10171;DHT22;5127;50.922;6.988;2024-02-28T15:24:34;13.50;72.70
10171;DHT22;5127;50.922;6.988;2024-02-28T15:27:03;13.50;72.70
10171;DHT22;5127;50.922;6.988;2024-02-28T15:29:31;13.50;72.60
10171;DHT22;5127;50.922;6.988;2024-02-28T15:31:58;13.60;72.90
10171;DHT22;5127;50.922;6.988;2024-02-28T15:34:26;13.50;72.50
10171;DHT22;5127;50.922;6.988;2024-02-28T15:36:54;13.50;72.60
10171;DHT22;5127;50.922;6.988;2024-02-28T15:39:22;13.50;72.00
10171;DHT22;5127;50.922;6.988;2024-02-28T15:41:49;13.50;72.50
10171;DHT22;5127;50.922;6.988;2024-02-28T15:44:17;13.50;72.50
10171;DHT22;5127;50.922;6.988;2024-02-28T15:46:44;13.50;72.40
10171;DHT22;5127;50.922;6.988;2024-02-28T15:49:12;13.50;72.40
10171;DHT22;5127;50.922;6.988;2024-02-28T15:51:39;13.50;72.70
10171;DHT22;5127;50.922;6.988;2024-02-28T15:54:08;13.50;72.70
10171;DHT22;5127;50.922;6.988;2024-02-28T15:56:35;13.50;72.00
10171;DHT22;5127;50.922;6.988;2024-02-28T15:59:03;13.50;73.30